createdAt,value
2017-08-22T00:00:26.311Z,0
2017-08-22T00:01:25.971Z,0
2017-08-22T00:02:26.280Z,0
2017-08-22T00:03:26.263Z,0
2017-08-22T00:04:26.232Z,0
2017-08-22T00:05:26.214Z,0
2017-08-22T00:06:25.891Z,0
2017-08-22T00:07:25.271Z,0
2017-08-22T00:08:25.861Z,0
2017-08-22T00:09:26.162Z,0
2017-08-22T00:10:26.140Z,0
2017-08-22T00:11:25.940Z,0
2017-08-22T00:12:26.116Z,0
2017-08-22T00:13:25.781Z,0
2017-08-22T00:14:26.080Z,0
2017-08-22T00:15:26.058Z,0
2017-08-22T00:16:26.031Z,0
2017-08-22T00:17:26.041Z,0
2017-08-22T00:18:26.001Z,0
2017-08-22T00:19:25.977Z,0
2017-08-22T00:20:25.802Z,0
2017-08-22T00:21:25.940Z,0
2017-08-22T00:22:25.931Z,0
2017-08-22T00:23:25.311Z,0
2017-08-22T00:24:25.296Z,0
2017-08-22T00:25:25.301Z,0
2017-08-22T00:26:24.942Z,0
2017-08-22T00:27:25.560Z,0
2017-08-22T00:28:25.841Z,0
2017-08-22T00:29:25.309Z,0
2017-08-22T00:30:25.500Z,0
2017-08-22T00:31:25.273Z,0
2017-08-22T00:32:25.760Z,0
2017-08-22T00:33:25.221Z,0
2017-08-22T00:34:25.451Z,0
2017-08-22T00:35:25.712Z,0
2017-08-22T00:36:25.700Z,0
2017-08-22T00:37:25.073Z,0
2017-08-22T00:38:25.039Z,0
2017-08-22T00:39:25.350Z,0
2017-08-22T00:40:25.642Z,0
2017-08-22T00:41:25.319Z,0
2017-08-22T00:42:24.660Z,0
2017-08-22T00:43:25.590Z,0
2017-08-22T00:44:25.320Z,0
2017-08-22T00:45:25.235Z,0
2017-08-22T00:46:25.299Z,0
2017-08-22T00:47:25.529Z,0
2017-08-22T00:48:25.206Z,0
2017-08-22T00:49:25.249Z,0
2017-08-22T00:50:25.460Z,0
2017-08-22T00:51:25.443Z,0
2017-08-22T00:52:25.437Z,0
2017-08-22T00:53:24.501Z,0
2017-08-22T00:54:25.391Z,0
2017-08-22T00:55:25.062Z,0
2017-08-22T00:56:25.376Z,0
2017-08-22T00:57:25.053Z,0
2017-08-22T00:58:24.702Z,0
2017-08-22T00:59:25.311Z,0
2017-08-22T01:00:25.304Z,0
2017-08-22T01:01:25.273Z,0
2017-08-22T01:02:24.940Z,0
2017-08-22T01:03:25.249Z,0
2017-08-22T01:04:24.933Z,0
2017-08-22T01:05:24.592Z,0
2017-08-22T01:06:25.178Z,0
2017-08-22T01:07:24.565Z,0
2017-08-22T01:08:25.145Z,0
2017-08-22T01:09:24.830Z,0
2017-08-22T01:10:24.812Z,0
2017-08-22T01:11:25.100Z,0
2017-08-22T01:12:24.191Z,0
2017-08-22T01:13:24.773Z,0
2017-08-22T01:14:24.661Z,0
2017-08-22T01:15:24.121Z,0
2017-08-22T01:16:24.706Z,0
2017-08-22T01:17:24.385Z,0
2017-08-22T01:18:24.667Z,0
2017-08-22T01:19:24.360Z,0
2017-08-22T01:20:24.349Z,0
2017-08-22T01:21:24.635Z,0
2017-08-22T01:22:24.301Z,0
2017-08-22T01:23:24.922Z,0
2017-08-22T01:24:24.280Z,0
2017-08-22T01:25:24.579Z,0
2017-08-22T01:26:23.923Z,0
2017-08-22T01:27:24.220Z,0
2017-08-22T01:28:24.219Z,0
2017-08-22T01:29:24.180Z,0
2017-08-22T01:30:24.467Z,0
2017-08-22T01:31:24.172Z,0
2017-08-22T01:32:24.440Z,0
2017-08-22T01:33:24.447Z,0
2017-08-22T01:34:24.131Z,0
2017-08-22T01:35:24.084Z,0
2017-08-22T01:36:24.722Z,0
2017-08-22T01:37:24.431Z,0
2017-08-22T01:38:24.339Z,0
2017-08-22T01:39:24.122Z,0
2017-08-22T01:40:24.086Z,0
2017-08-22T01:41:24.600Z,0
2017-08-22T01:42:24.265Z,0
2017-08-22T01:43:24.343Z,0
2017-08-22T01:44:24.554Z,0
2017-08-22T01:45:24.219Z,0
2017-08-22T01:46:24.521Z,0
2017-08-22T01:47:24.489Z,0
2017-08-22T01:48:24.470Z,0
2017-08-22T01:49:24.161Z,0
2017-08-22T01:50:24.434Z,0
2017-08-22T01:51:24.142Z,0
2017-08-22T01:52:24.102Z,0
2017-08-22T01:53:24.382Z,0
2017-08-22T01:54:24.074Z,0
2017-08-22T01:55:24.043Z,0
2017-08-22T01:56:24.403Z,0
2017-08-22T01:57:24.335Z,0
2017-08-22T01:58:24.012Z,0
2017-08-22T01:59:24.054Z,0
2017-08-22T02:00:23.995Z,0
2017-08-22T02:01:23.971Z,0
2017-08-22T02:02:23.971Z,0
2017-08-22T02:03:23.665Z,0
2017-08-22T02:04:24.211Z,0
2017-08-22T02:05:24.204Z,0
2017-08-22T02:06:24.024Z,0
2017-08-22T02:07:24.220Z,0
2017-08-22T02:08:24.182Z,0
2017-08-22T02:09:24.142Z,0
2017-08-22T02:10:24.112Z,0
2017-08-22T02:11:24.092Z,0
2017-08-22T02:12:23.490Z,0
2017-08-22T02:13:23.741Z,0
2017-08-22T02:14:24.134Z,0
2017-08-22T02:15:23.795Z,0
2017-08-22T02:16:23.720Z,0
2017-08-22T02:17:23.377Z,0
2017-08-22T02:18:23.968Z,0
2017-08-22T02:19:23.987Z,0
2017-08-22T02:20:23.959Z,0
2017-08-22T02:21:23.914Z,0
2017-08-22T02:22:23.962Z,0
2017-08-22T02:23:23.576Z,0
2017-08-22T02:24:23.566Z,0
2017-08-22T02:25:23.862Z,0
2017-08-22T02:26:23.220Z,0
2017-08-22T02:27:23.521Z,0
2017-08-22T02:28:23.542Z,0
2017-08-22T02:29:23.822Z,0
2017-08-22T02:30:23.170Z,0
2017-08-22T02:31:23.441Z,0
2017-08-22T02:32:23.751Z,0
2017-08-22T02:33:23.421Z,0
2017-08-22T02:34:23.684Z,0
2017-08-22T02:35:23.741Z,0
2017-08-22T02:36:23.051Z,0
2017-08-22T02:37:23.152Z,0
2017-08-22T02:38:23.344Z,0
2017-08-22T02:39:23.602Z,0
2017-08-22T02:40:23.641Z,0
2017-08-22T02:41:23.591Z,0
2017-08-22T02:42:23.552Z,0
2017-08-22T02:43:22.942Z,0
2017-08-22T02:44:23.214Z,0
2017-08-22T02:45:23.519Z,0
2017-08-22T02:46:23.502Z,0
2017-08-22T02:47:23.181Z,0
2017-08-22T02:48:23.153Z,0
2017-08-22T02:49:23.220Z,0
2017-08-22T02:50:23.124Z,0
2017-08-22T02:51:23.102Z,0
2017-08-22T02:52:23.482Z,0
2017-08-22T02:53:23.384Z,0
2017-08-22T02:54:23.042Z,0
2017-08-22T02:55:22.753Z,0
2017-08-22T02:56:23.301Z,0
2017-08-22T02:57:22.979Z,0
2017-08-22T02:58:22.978Z,0
2017-08-22T02:59:22.962Z,0
2017-08-22T03:00:22.923Z,0
2017-08-22T03:01:23.227Z,0
2017-08-22T03:02:22.911Z,0
2017-08-22T03:03:22.903Z,0
2017-08-22T03:04:22.872Z,0
2017-08-22T03:05:23.151Z,0
2017-08-22T03:06:22.862Z,0
2017-08-22T03:07:22.813Z,0
2017-08-22T03:08:22.484Z,0
2017-08-22T03:09:22.153Z,0
2017-08-22T03:10:23.079Z,0
2017-08-22T03:11:22.142Z,0
2017-08-22T03:12:22.741Z,0
2017-08-22T03:13:23.014Z,0
2017-08-22T03:14:22.695Z,0
2017-08-22T03:15:22.672Z,0
2017-08-22T03:16:22.663Z,0
2017-08-22T03:17:22.682Z,0
2017-08-22T03:18:22.946Z,0
2017-08-22T03:19:22.912Z,0
2017-08-22T03:20:22.291Z,0
2017-08-22T03:21:22.284Z,0
2017-08-22T03:22:22.909Z,0
2017-08-22T03:23:22.242Z,0
2017-08-22T03:24:22.852Z,0
2017-08-22T03:25:22.814Z,0
2017-08-22T03:26:22.813Z,0
2017-08-22T03:27:22.163Z,0
2017-08-22T03:28:22.141Z,0
2017-08-22T03:29:22.762Z,0
2017-08-22T03:30:22.764Z,0
2017-08-22T03:31:22.400Z,0
2017-08-22T03:32:22.693Z,0
2017-08-22T03:33:22.072Z,0
2017-08-22T03:34:22.053Z,0
2017-08-22T03:35:22.053Z,0
2017-08-22T03:36:22.004Z,0
2017-08-22T03:37:22.292Z,0
2017-08-22T03:38:22.102Z,0
2017-08-22T03:39:22.593Z,0
2017-08-22T03:40:22.261Z,0
2017-08-22T03:41:22.243Z,0
2017-08-22T03:42:22.509Z,0
2017-08-22T03:43:22.194Z,0
2017-08-22T03:44:22.182Z,0
2017-08-22T03:45:22.473Z,0
2017-08-22T03:46:22.464Z,0
2017-08-22T03:47:22.441Z,0
2017-08-22T03:48:22.412Z,0
2017-08-22T03:49:21.783Z,0
2017-08-22T03:50:21.851Z,0
2017-08-22T03:51:22.054Z,0
2017-08-22T03:52:22.341Z,0
2017-08-22T03:53:21.765Z,0
2017-08-22T03:54:21.713Z,0
2017-08-22T03:55:21.985Z,0
2017-08-22T03:56:21.963Z,0
2017-08-22T03:57:21.970Z,0
2017-08-22T03:58:21.934Z,0
2017-08-22T03:59:21.929Z,0
2017-08-22T04:00:21.884Z,0
2017-08-22T04:01:22.192Z,0
2017-08-22T04:02:21.852Z,4
2017-08-22T04:03:22.184Z,4
2017-08-22T04:04:22.164Z,4
2017-08-22T04:05:21.822Z,0
2017-08-22T04:06:21.792Z,4
2017-08-22T04:07:21.483Z,4
2017-08-22T04:08:21.879Z,4
2017-08-22T04:09:22.063Z,4
2017-08-22T04:10:21.410Z,8
2017-08-22T04:11:21.783Z,4
2017-08-22T04:12:21.802Z,4
2017-08-22T04:13:21.793Z,8
2017-08-22T04:14:21.687Z,8
2017-08-22T04:15:21.708Z,8
2017-08-22T04:16:21.721Z,12
2017-08-22T04:17:21.599Z,12
2017-08-22T04:18:21.605Z,12
2017-08-22T04:19:21.579Z,12
2017-08-22T04:20:21.863Z,16
2017-08-22T04:21:21.851Z,16
2017-08-22T04:22:21.811Z,20
2017-08-22T04:23:21.821Z,20
2017-08-22T04:24:21.788Z,20
2017-08-22T04:25:21.462Z,20
2017-08-22T04:26:21.754Z,20
2017-08-22T04:27:21.725Z,24
2017-08-22T04:28:21.113Z,28
2017-08-22T04:29:21.711Z,32
2017-08-22T04:30:21.366Z,36
2017-08-22T04:31:21.685Z,40
2017-08-22T04:32:21.357Z,44
2017-08-22T04:33:21.352Z,44
2017-08-22T04:34:21.632Z,52
2017-08-22T04:35:21.604Z,56
2017-08-22T04:36:21.588Z,60
2017-08-22T04:37:21.581Z,68
2017-08-22T04:38:21.267Z,72
2017-08-22T04:39:21.564Z,80
2017-08-22T04:40:21.273Z,88
2017-08-22T04:41:21.185Z,96
2017-08-22T04:42:21.162Z,108
2017-08-22T04:43:21.169Z,112
2017-08-22T04:44:21.126Z,124
2017-08-22T04:45:21.414Z,136
2017-08-22T04:46:21.413Z,144
2017-08-22T04:47:21.108Z,156
2017-08-22T04:48:21.162Z,168
2017-08-22T04:49:20.742Z,184
2017-08-22T04:50:21.071Z,196
2017-08-22T04:51:21.012Z,208
2017-08-22T04:52:21.054Z,220
2017-08-22T04:53:20.986Z,236
2017-08-22T04:54:20.972Z,252
2017-08-22T04:55:21.251Z,268
2017-08-22T04:56:21.043Z,280
2017-08-22T04:57:21.222Z,296
2017-08-22T04:58:21.190Z,312
2017-08-22T04:59:21.180Z,328
2017-08-22T05:00:21.151Z,352
2017-08-22T05:01:20.851Z,372
2017-08-22T05:02:21.140Z,404
2017-08-22T05:03:20.504Z,436
2017-08-22T05:04:20.480Z,468
2017-08-22T05:05:21.072Z,488
2017-08-22T05:06:20.739Z,512
2017-08-22T05:07:21.032Z,540
2017-08-22T05:08:21.012Z,568
2017-08-22T05:09:20.701Z,588
2017-08-22T05:10:20.683Z,600
2017-08-22T05:11:20.672Z,620
2017-08-22T05:12:20.644Z,660
2017-08-22T05:13:20.627Z,704
2017-08-22T05:14:20.592Z,712
2017-08-22T05:15:20.583Z,696
2017-08-22T05:16:20.621Z,680
2017-08-22T05:17:20.541Z,688
2017-08-22T05:18:20.515Z,708
2017-08-22T05:19:20.534Z,732
2017-08-22T05:20:20.509Z,752
2017-08-22T05:21:20.482Z,780
2017-08-22T05:22:20.461Z,828
2017-08-22T05:23:20.762Z,872
2017-08-22T05:24:20.559Z,892
2017-08-22T05:25:20.401Z,892
2017-08-22T05:26:20.501Z,888
2017-08-22T05:27:20.651Z,884
2017-08-22T05:28:20.750Z,868
2017-08-22T05:29:20.372Z,852
2017-08-22T05:30:20.341Z,844
2017-08-22T05:31:20.327Z,840
2017-08-22T05:32:19.974Z,852
2017-08-22T05:33:20.798Z,856
2017-08-22T05:34:20.239Z,864
2017-08-22T05:35:20.544Z,856
2017-08-22T05:36:20.661Z,848
2017-08-22T05:37:20.194Z,848
2017-08-22T05:38:20.282Z,860
2017-08-22T05:39:20.466Z,880
2017-08-22T05:40:20.157Z,908
2017-08-22T05:41:20.428Z,932
2017-08-22T05:42:19.792Z,956
2017-08-22T05:43:20.520Z,968
2017-08-22T05:44:20.072Z,980
2017-08-22T05:45:20.053Z,996
2017-08-22T05:46:20.331Z,1024
2017-08-22T05:47:19.729Z,1068
2017-08-22T05:48:20.301Z,1112
2017-08-22T05:49:19.980Z,1156
2017-08-22T05:50:19.653Z,1196
2017-08-22T05:51:20.036Z,1244
2017-08-22T05:52:19.937Z,1288
2017-08-22T05:53:19.690Z,1316
2017-08-22T05:54:19.893Z,1356
2017-08-22T05:55:20.330Z,1388
2017-08-22T05:56:19.590Z,1404
2017-08-22T05:57:20.160Z,1432
2017-08-22T05:58:20.261Z,1452
2017-08-22T05:59:19.493Z,1480
2017-08-22T06:00:20.094Z,1500
2017-08-22T06:01:20.023Z,1516
2017-08-22T06:02:19.432Z,1536
2017-08-22T06:03:19.729Z,1544
2017-08-22T06:04:20.109Z,1580
2017-08-22T06:05:19.372Z,1648
2017-08-22T06:06:20.000Z,1752
2017-08-22T06:07:20.051Z,1852
2017-08-22T06:08:19.953Z,1932
2017-08-22T06:09:20.023Z,2000
2017-08-22T06:10:19.641Z,2056
2017-08-22T06:11:19.583Z,2152
2017-08-22T06:12:19.940Z,2404
2017-08-22T06:13:19.950Z,2768
2017-08-22T06:14:19.249Z,3000
2017-08-22T06:15:19.210Z,3052
2017-08-22T06:16:19.558Z,3116
2017-08-22T06:17:19.802Z,3184
2017-08-22T06:18:19.780Z,3248
2017-08-22T06:19:19.145Z,3344
2017-08-22T06:20:19.755Z,3420
2017-08-22T06:21:19.417Z,3516
2017-08-22T06:22:19.390Z,3568
2017-08-22T06:23:19.382Z,3560
2017-08-22T06:24:19.367Z,3552
2017-08-22T06:25:19.418Z,3584
2017-08-22T06:26:19.351Z,3620
2017-08-22T06:27:18.991Z,3704
2017-08-22T06:28:19.288Z,3868
2017-08-22T06:29:19.586Z,4032
2017-08-22T06:30:19.283Z,4260
2017-08-22T06:31:19.240Z,4620
2017-08-22T06:32:19.239Z,5000
2017-08-22T06:33:19.514Z,5348
2017-08-22T06:34:19.209Z,5768
2017-08-22T06:35:19.192Z,6280
2017-08-22T06:36:19.157Z,6772
2017-08-22T06:37:19.150Z,7180
2017-08-22T06:38:19.450Z,7448
2017-08-22T06:39:19.460Z,7644
2017-08-22T06:40:19.091Z,7784
2017-08-22T06:41:19.073Z,7904
2017-08-22T06:42:19.362Z,8032
2017-08-22T06:43:19.387Z,8172
2017-08-22T06:44:19.339Z,8296
2017-08-22T06:45:19.334Z,8404
2017-08-22T06:46:19.320Z,8496
2017-08-22T06:47:19.340Z,8620
2017-08-22T06:48:18.980Z,8748
2017-08-22T06:49:19.387Z,8944
2017-08-22T06:50:19.250Z,9124
2017-08-22T06:51:18.921Z,9264
2017-08-22T06:52:18.919Z,9356
2017-08-22T06:53:19.327Z,9424
2017-08-22T06:54:19.226Z,9440
2017-08-22T06:55:19.159Z,9040
2017-08-22T06:56:18.840Z,8712
2017-08-22T06:57:19.172Z,8620
2017-08-22T06:58:19.109Z,8548
2017-08-22T06:59:19.125Z,8336
2017-08-22T07:00:19.103Z,8036
2017-08-22T07:01:18.769Z,7688
2017-08-22T07:02:18.767Z,7544
2017-08-22T07:03:18.755Z,7408
2017-08-22T07:04:19.039Z,7616
2017-08-22T07:05:18.741Z,8260
2017-08-22T07:06:18.693Z,7976
2017-08-22T07:07:18.690Z,8208
2017-08-22T07:08:18.674Z,10328
2017-08-22T07:09:18.639Z,10620
2017-08-22T07:10:18.942Z,9304
2017-08-22T07:11:18.310Z,11928
2017-08-22T07:12:18.601Z,8904
2017-08-22T07:13:18.591Z,9208
2017-08-22T07:14:18.581Z,9172
2017-08-22T07:15:18.260Z,9144
2017-08-22T07:16:18.554Z,9264
2017-08-22T07:17:18.306Z,9504
2017-08-22T07:18:18.856Z,9944
2017-08-22T07:19:18.518Z,10324
2017-08-22T07:20:18.794Z,10816
2017-08-22T07:21:18.790Z,10980
2017-08-22T07:22:18.757Z,10860
2017-08-22T07:23:18.786Z,10736
2017-08-22T07:24:18.729Z,10560
2017-08-22T07:25:18.765Z,10296
2017-08-22T07:26:18.731Z,10020
2017-08-22T07:27:18.460Z,9712
2017-08-22T07:28:18.369Z,9568
2017-08-22T07:29:18.690Z,9272
2017-08-22T07:30:18.645Z,9016
2017-08-22T07:31:18.636Z,8920
2017-08-22T07:32:18.314Z,8984
2017-08-22T07:33:18.278Z,9140
2017-08-22T07:34:18.085Z,9304
2017-08-22T07:35:18.281Z,9464
2017-08-22T07:36:18.260Z,9260
2017-08-22T07:37:18.566Z,9272
2017-08-22T07:38:17.930Z,9580
2017-08-22T07:39:18.221Z,10352
2017-08-22T07:40:18.190Z,10988
2017-08-22T07:41:18.198Z,11776
2017-08-22T07:42:18.502Z,12236
2017-08-22T07:43:18.482Z,12512
2017-08-22T07:44:18.179Z,12180
2017-08-22T07:45:18.222Z,12232
2017-08-22T07:46:17.859Z,11908
2017-08-22T07:47:18.409Z,12528
2017-08-22T07:48:18.097Z,10716
2017-08-22T07:49:18.081Z,9228
2017-08-22T07:50:17.801Z,8604
2017-08-22T07:51:18.060Z,8156
2017-08-22T07:52:18.032Z,7960
2017-08-22T07:53:18.059Z,8636
2017-08-22T07:54:18.031Z,8528
2017-08-22T07:55:18.043Z,10032
2017-08-22T07:56:18.310Z,11924
2017-08-22T07:57:18.499Z,21472
2017-08-22T07:58:18.284Z,14400
2017-08-22T07:59:18.264Z,18592
2017-08-22T08:00:18.067Z,15776
2017-08-22T08:01:18.470Z,17920
2017-08-22T08:02:18.250Z,15268
2017-08-22T08:03:17.921Z,16256
2017-08-22T08:04:17.679Z,17856
2017-08-22T08:05:18.182Z,15192
2017-08-22T08:06:18.179Z,11544
2017-08-22T08:07:17.891Z,11516
2017-08-22T08:08:17.870Z,12796
2017-08-22T08:09:18.210Z,23424
2017-08-22T08:10:18.211Z,41376
2017-08-22T08:11:18.168Z,23168
2017-08-22T08:12:17.802Z,18720
2017-08-22T08:13:18.087Z,35168
2017-08-22T08:14:18.131Z,18624
2017-08-22T08:15:18.091Z,47008
2017-08-22T08:16:18.104Z,18560
2017-08-22T08:17:18.072Z,23424
2017-08-22T08:18:17.403Z,19552
2017-08-22T08:19:18.150Z,23232
2017-08-22T08:20:17.705Z,47136
2017-08-22T08:21:18.006Z,31520
2017-08-22T08:22:17.072Z,20736
2017-08-22T08:23:17.999Z,21312
2017-08-22T08:24:17.979Z,17280
2017-08-22T08:25:17.652Z,17120
2017-08-22T08:26:17.636Z,20256
2017-08-22T08:27:17.619Z,32512
2017-08-22T08:28:17.286Z,33088
2017-08-22T08:29:17.610Z,36224
2017-08-22T08:30:17.629Z,42976
2017-08-22T08:31:17.592Z,43168
2017-08-22T08:32:17.885Z,45504
2017-08-22T08:33:17.871Z,56256
2017-08-22T08:34:17.882Z,57184
2017-08-22T08:35:17.661Z,47776
2017-08-22T08:36:17.541Z,46688
2017-08-22T08:37:17.303Z,50944
2017-08-22T08:38:17.541Z,47488
2017-08-22T08:39:17.270Z,41536
2017-08-22T08:40:17.516Z,38144
2017-08-22T08:41:17.504Z,36480
2017-08-22T08:42:17.802Z,35104
2017-08-22T08:43:17.801Z,34336
2017-08-22T08:44:17.183Z,31712
2017-08-22T08:45:17.482Z,30656
2017-08-22T08:46:17.470Z,31456
2017-08-22T08:47:17.460Z,32064
2017-08-22T08:48:17.470Z,31904
2017-08-22T08:49:17.461Z,31040
2017-08-22T08:50:17.467Z,30432
2017-08-22T08:51:17.450Z,31552
2017-08-22T08:52:17.470Z,31968
2017-08-22T08:53:17.651Z,30528
2017-08-22T08:54:17.472Z,30112
2017-08-22T08:55:17.428Z,30560
2017-08-22T08:56:17.780Z,29824
2017-08-22T08:57:17.766Z,30112
2017-08-22T08:58:17.763Z,29952
2017-08-22T08:59:17.766Z,29728
2017-08-22T09:00:17.100Z,29920
2017-08-22T09:01:17.400Z,30400
2017-08-22T09:02:17.400Z,30720
2017-08-22T09:03:17.696Z,32096
2017-08-22T09:04:17.715Z,35232
2017-08-22T09:05:17.701Z,34816
2017-08-22T09:06:17.395Z,39968
2017-08-22T09:07:17.388Z,45152
2017-08-22T09:08:17.373Z,47168
2017-08-22T09:09:17.374Z,57600
2017-08-22T09:10:17.665Z,53664
2017-08-22T09:11:17.403Z,49536
2017-08-22T09:12:17.728Z,53888
2017-08-22T09:13:17.674Z,52480
2017-08-22T09:14:17.361Z,50528
2017-08-22T09:15:16.746Z,52448
2017-08-22T09:16:17.060Z,52320
2017-08-22T09:17:17.650Z,50560
2017-08-22T09:18:17.661Z,53280
2017-08-22T09:19:17.719Z,51392
2017-08-22T09:20:17.330Z,47840
2017-08-22T09:21:17.669Z,48416
2017-08-22T09:22:17.650Z,48576
2017-08-22T09:23:17.641Z,49312
2017-08-22T09:24:17.731Z,50528
2017-08-22T09:25:17.351Z,49920
2017-08-22T09:26:17.693Z,48768
2017-08-22T09:27:17.862Z,46176
2017-08-22T09:28:17.006Z,45184
2017-08-22T09:29:17.840Z,48224
2017-08-22T09:30:17.002Z,49280
2017-08-22T09:31:17.321Z,48448
2017-08-22T09:32:17.311Z,48512
2017-08-22T09:33:17.297Z,47520
2017-08-22T09:34:17.294Z,47648
2017-08-22T09:35:17.602Z,48128
2017-08-22T09:36:17.617Z,45696
2017-08-22T09:37:17.611Z,44896
2017-08-22T09:38:17.586Z,46336
2017-08-22T09:39:17.281Z,44768
2017-08-22T09:40:17.586Z,43008
2017-08-22T09:41:17.281Z,43776
2017-08-22T09:42:17.610Z,45536
2017-08-22T09:43:16.973Z,44416
2017-08-22T09:44:17.604Z,43584
2017-08-22T09:45:16.972Z,43200
2017-08-22T09:46:16.972Z,43040
2017-08-22T09:47:16.974Z,44544
2017-08-22T09:48:17.573Z,44416
2017-08-22T09:49:16.975Z,45408
2017-08-22T09:50:17.263Z,43936
2017-08-22T09:51:17.262Z,41280
2017-08-22T09:52:17.560Z,41280
2017-08-22T09:53:16.930Z,41696
2017-08-22T09:54:17.578Z,44736
2017-08-22T09:55:17.260Z,44160
2017-08-22T09:56:17.231Z,42432
2017-08-22T09:57:17.223Z,43264
2017-08-22T09:58:17.601Z,43456
2017-08-22T09:59:17.221Z,42560
2017-08-22T10:00:17.591Z,40832
2017-08-22T10:01:17.532Z,39968
2017-08-22T10:02:17.520Z,40576
2017-08-22T10:03:17.209Z,40544
2017-08-22T10:04:17.210Z,40608
2017-08-22T10:05:17.512Z,39136
2017-08-22T10:06:17.511Z,37344
2017-08-22T10:07:17.730Z,36832
2017-08-22T10:08:17.546Z,37440
2017-08-22T10:09:17.521Z,37248
2017-08-22T10:10:17.493Z,36224
2017-08-22T10:11:16.894Z,36064
2017-08-22T10:12:17.210Z,36096
2017-08-22T10:13:17.461Z,35328
2017-08-22T10:14:16.866Z,33984
2017-08-22T10:15:17.161Z,34016
2017-08-22T10:16:16.860Z,34816
2017-08-22T10:17:17.148Z,35296
2017-08-22T10:18:17.152Z,35136
2017-08-22T10:19:17.157Z,34080
2017-08-22T10:20:17.452Z,27104
2017-08-22T10:21:17.483Z,19264
2017-08-22T10:22:16.840Z,17888
2017-08-22T10:23:17.431Z,17632
2017-08-22T10:24:17.419Z,17504
2017-08-22T10:25:17.118Z,17376
2017-08-22T10:26:17.120Z,17184
2017-08-22T10:27:16.805Z,17280
2017-08-22T10:28:17.412Z,17088
2017-08-22T10:29:17.453Z,16800
2017-08-22T10:30:17.401Z,16704
2017-08-22T10:31:16.882Z,16232
2017-08-22T10:32:17.383Z,16608
2017-08-22T10:33:17.134Z,16228
2017-08-22T10:34:17.051Z,14324
2017-08-22T10:35:17.383Z,13548
2017-08-22T10:36:17.347Z,12756
2017-08-22T10:37:17.344Z,11896
2017-08-22T10:38:17.343Z,11240
2017-08-22T10:39:17.333Z,10784
2017-08-22T10:40:17.030Z,10472
2017-08-22T10:41:17.321Z,9924
2017-08-22T10:42:17.021Z,9308
2017-08-22T10:43:17.018Z,8840
2017-08-22T10:44:17.014Z,8460
2017-08-22T10:45:17.298Z,7988
2017-08-22T10:46:16.991Z,7652
2017-08-22T10:47:16.972Z,7400
2017-08-22T10:48:16.959Z,7364
2017-08-22T10:49:16.981Z,7320
2017-08-22T10:50:16.975Z,7368
2017-08-22T10:51:16.938Z,7332
2017-08-22T10:52:16.929Z,7484
2017-08-22T10:53:16.923Z,7868
2017-08-22T10:54:17.223Z,8244
2017-08-22T10:55:17.212Z,8568
2017-08-22T10:56:16.911Z,8932
2017-08-22T10:57:16.900Z,9960
2017-08-22T10:58:17.204Z,8588
2017-08-22T10:59:16.885Z,8020
2017-08-22T11:00:17.182Z,7856
2017-08-22T11:01:17.164Z,7664
2017-08-22T11:02:16.862Z,7372
2017-08-22T11:03:16.852Z,7032
2017-08-22T11:04:16.860Z,6836
2017-08-22T11:05:16.845Z,6756
2017-08-22T11:06:17.228Z,6864
2017-08-22T11:07:16.501Z,7180
2017-08-22T11:08:17.123Z,7456
2017-08-22T11:09:16.794Z,9080
2017-08-22T11:10:17.165Z,8584
2017-08-22T11:11:16.773Z,8160
2017-08-22T11:12:16.861Z,8300
2017-08-22T11:13:16.794Z,8536
2017-08-22T11:14:16.756Z,8912
2017-08-22T11:15:16.831Z,9660
2017-08-22T11:16:17.034Z,10052
2017-08-22T11:17:16.726Z,10484
2017-08-22T11:18:16.791Z,12152
2017-08-22T11:19:16.723Z,12980
2017-08-22T11:20:17.051Z,13208
2017-08-22T11:21:16.990Z,13156
2017-08-22T11:22:17.022Z,13052
2017-08-22T11:23:16.745Z,12096
2017-08-22T11:24:16.962Z,12968
2017-08-22T11:25:16.975Z,13748
2017-08-22T11:26:16.339Z,13740
2017-08-22T11:27:16.952Z,13880
2017-08-22T11:28:16.934Z,13748
2017-08-22T11:29:16.930Z,13676
2017-08-22T11:30:16.941Z,13336
2017-08-22T11:31:16.904Z,11520
2017-08-22T11:32:16.912Z,11288
2017-08-22T11:33:16.880Z,12572
2017-08-22T11:34:16.921Z,12428
2017-08-22T11:35:16.886Z,11284
2017-08-22T11:36:16.251Z,10088
2017-08-22T11:37:16.882Z,9824
2017-08-22T11:38:16.872Z,9556
2017-08-22T11:39:16.582Z,9360
2017-08-22T11:40:16.852Z,9312
2017-08-22T11:41:16.843Z,9536
2017-08-22T11:42:16.832Z,9592
2017-08-22T11:43:16.203Z,9780
2017-08-22T11:44:16.839Z,11900
2017-08-22T11:45:16.791Z,11960
2017-08-22T11:46:16.171Z,12184
2017-08-22T11:47:16.483Z,12172
2017-08-22T11:48:16.777Z,11964
2017-08-22T11:49:16.453Z,11832
2017-08-22T11:50:16.854Z,11644
2017-08-22T11:51:16.827Z,11628
2017-08-22T11:52:16.831Z,11732
2017-08-22T11:53:16.519Z,11836
2017-08-22T11:54:16.442Z,12068
2017-08-22T11:55:16.463Z,12380
2017-08-22T11:56:16.393Z,12340
2017-08-22T11:57:16.793Z,12112
2017-08-22T11:58:16.381Z,11648
2017-08-22T11:59:16.694Z,11048
2017-08-22T12:00:16.695Z,11956
2017-08-22T12:01:16.369Z,12528
2017-08-22T12:02:16.708Z,13100
2017-08-22T12:03:16.350Z,13092
2017-08-22T12:04:16.331Z,12956
2017-08-22T12:05:16.332Z,12460
2017-08-22T12:06:16.666Z,12176
2017-08-22T12:07:16.706Z,11852
2017-08-22T12:08:16.305Z,10656
2017-08-22T12:09:16.642Z,10164
2017-08-22T12:10:16.603Z,8652
2017-08-22T12:11:16.522Z,8444
2017-08-22T12:12:16.574Z,8020
2017-08-22T12:13:16.583Z,7616
2017-08-22T12:14:15.834Z,7312
2017-08-22T12:15:16.592Z,7148
2017-08-22T12:16:16.251Z,7168
2017-08-22T12:17:16.541Z,6944
2017-08-22T12:18:16.239Z,6876
2017-08-22T12:19:16.533Z,7500
2017-08-22T12:20:16.533Z,7284
2017-08-22T12:21:16.212Z,6916
2017-08-22T12:22:16.512Z,6616
2017-08-22T12:23:16.221Z,6696
2017-08-22T12:24:16.493Z,6620
2017-08-22T12:25:16.293Z,6836
2017-08-22T12:26:16.454Z,8856
2017-08-22T12:27:16.166Z,7272
2017-08-22T12:28:16.452Z,6844
2017-08-22T12:29:16.441Z,6504
2017-08-22T12:30:16.572Z,6524
2017-08-22T12:31:16.452Z,6680
2017-08-22T12:32:16.347Z,6868
2017-08-22T12:33:16.518Z,7100
2017-08-22T12:34:16.414Z,7228
2017-08-22T12:35:16.406Z,7488
2017-08-22T12:36:16.411Z,7876
2017-08-22T12:37:16.421Z,9800
2017-08-22T12:38:16.391Z,10260
2017-08-22T12:39:16.373Z,9944
2017-08-22T12:40:16.484Z,10096
2017-08-22T12:41:16.157Z,9324
2017-08-22T12:42:16.405Z,9656
2017-08-22T12:43:16.422Z,9840
2017-08-22T12:44:16.322Z,8964
2017-08-22T12:45:16.322Z,9472
2017-08-22T12:46:16.013Z,10032
2017-08-22T12:47:16.364Z,10036
2017-08-22T12:48:15.989Z,10052
2017-08-22T12:49:16.301Z,10356
2017-08-22T12:50:15.670Z,9824
2017-08-22T12:51:15.952Z,9796
2017-08-22T12:52:15.961Z,10456
2017-08-22T12:53:16.237Z,10640
2017-08-22T12:54:16.232Z,10492
2017-08-22T12:55:16.229Z,10300
2017-08-22T12:56:16.073Z,10436
2017-08-22T12:57:16.206Z,9588
2017-08-22T12:58:15.743Z,9224
2017-08-22T12:59:15.616Z,8476
2017-08-22T13:00:15.893Z,7216
2017-08-22T13:01:15.890Z,7028
2017-08-22T13:02:15.561Z,6948
2017-08-22T13:03:15.871Z,6980
2017-08-22T13:04:15.908Z,6572
2017-08-22T13:05:15.859Z,6428
2017-08-22T13:06:16.139Z,6252
2017-08-22T13:07:16.385Z,6104
2017-08-22T13:08:15.521Z,6024
2017-08-22T13:09:15.858Z,5916
2017-08-22T13:10:15.835Z,5828
2017-08-22T13:11:15.853Z,5720
2017-08-22T13:12:16.082Z,5640
2017-08-22T13:13:16.162Z,5580
2017-08-22T13:14:15.762Z,5660
2017-08-22T13:15:16.101Z,8364
2017-08-22T13:16:15.459Z,5864
2017-08-22T13:17:15.762Z,5844
2017-08-22T13:18:16.032Z,6488
2017-08-22T13:19:16.101Z,6468
2017-08-22T13:20:15.703Z,7444
2017-08-22T13:21:15.723Z,6000
2017-08-22T13:22:16.048Z,8124
2017-08-22T13:23:15.781Z,8360
2017-08-22T13:24:16.009Z,8368
2017-08-22T13:25:15.665Z,8512
2017-08-22T13:26:15.662Z,8668
2017-08-22T13:27:15.661Z,8828
2017-08-22T13:28:15.630Z,8960
2017-08-22T13:29:16.011Z,9288
2017-08-22T13:30:15.635Z,9568
2017-08-22T13:31:15.615Z,9692
2017-08-22T13:32:15.900Z,9732
2017-08-22T13:33:15.910Z,9620
2017-08-22T13:34:15.900Z,9552
2017-08-22T13:35:15.627Z,8640
2017-08-22T13:36:15.591Z,7968
2017-08-22T13:37:15.870Z,8808
2017-08-22T13:38:15.860Z,8648
2017-08-22T13:39:15.552Z,8512